sensor_id;sensor_type;location;lat;lon;timestamp;P1;durP1;ratioP1;P2;durP2;ratioP2
62633;SDS011;48704;50.534;6.442;2023-04-03T00:00:55;8.07;;;2.58;;
62633;SDS011;48704;50.534;6.442;2023-04-03T00:03:21;6.60;;;2.22;;
62633;SDS011;48704;50.534;6.442;2023-04-03T00:05:47;3.42;;;2.50;;
62633;SDS011;48704;50.534;6.442;2023-04-03T00:08:12;4.38;;;2.40;;
62633;SDS011;48704;50.534;6.442;2023-04-03T00:10:38;4.55;;;2.65;;
62633;SDS011;48704;50.534;6.442;2023-04-03T00:13:03;5.40;;;2.67;;
62633;SDS011;48704;50.534;6.442;2023-04-03T00:15:29;5.20;;;2.47;;
62633;SDS011;48704;50.534;6.442;2023-04-03T00:17:55;5.85;;;2.80;;
62633;SDS011;48704;50.534;6.442;2023-04-03T00:20:21;3.72;;;2.35;;
62633;SDS011;48704;50.534;6.442;2023-04-03T00:22:46;4.20;;;2.42;;
62633;SDS011;48704;50.534;6.442;2023-04-03T00:25:11;7.32;;;2.70;;
62633;SDS011;48704;50.534;6.442;2023-04-03T00:27:37;3.85;;;2.42;;
62633;SDS011;48704;50.534;6.442;2023-04-03T00:30:06;5.50;;;2.78;;
62633;SDS011;48704;50.534;6.442;2023-04-03T00:32:34;5.70;;;2.40;;
62633;SDS011;48704;50.534;6.442;2023-04-03T00:34:59;5.10;;;2.47;;
62633;SDS011;48704;50.534;6.442;2023-04-03T00:37:24;5.13;;;2.65;;
62633;SDS011;48704;50.534;6.442;2023-04-03T00:39:50;3.38;;;2.53;;
62633;SDS011;48704;50.534;6.442;2023-04-03T00:42:15;3.47;;;2.22;;
62633;SDS011;48704;50.534;6.442;2023-04-03T00:47:07;5.85;;;2.47;;
62633;SDS011;48704;50.534;6.442;2023-04-03T00:49:35;3.92;;;2.40;;
62633;SDS011;48704;50.534;6.442;2023-04-03T00:52:02;4.28;;;2.40;;
62633;SDS011;48704;50.534;6.442;2023-04-03T00:54:28;4.70;;;2.20;;
62633;SDS011;48704;50.534;6.442;2023-04-03T00:56:55;5.57;;;2.25;;
62633;SDS011;48704;50.534;6.442;2023-04-03T00:59:24;3.95;;;2.40;;
62633;SDS011;48704;50.534;6.442;2023-04-03T01:01:55;6.28;;;2.50;;
62633;SDS011;48704;50.534;6.442;2023-04-03T01:04:30;4.05;;;2.20;;
62633;SDS011;48704;50.534;6.442;2023-04-03T01:07:05;3.80;;;2.10;;
62633;SDS011;48704;50.534;6.442;2023-04-03T01:09:33;5.30;;;2.05;;
62633;SDS011;48704;50.534;6.442;2023-04-03T01:12:16;5.43;;;2.03;;
62633;SDS011;48704;50.534;6.442;2023-04-03T01:14:44;6.07;;;2.08;;
62633;SDS011;48704;50.534;6.442;2023-04-03T01:22:59;5.20;;;2.30;;
62633;SDS011;48704;50.534;6.442;2023-04-03T01:25:31;4.07;;;1.98;;
62633;SDS011;48704;50.534;6.442;2023-04-03T01:27:57;6.57;;;2.40;;
62633;SDS011;48704;50.534;6.442;2023-04-03T01:30:24;6.07;;;2.08;;
62633;SDS011;48704;50.534;6.442;2023-04-03T01:32:55;3.67;;;2.22;;
62633;SDS011;48704;50.534;6.442;2023-04-03T01:35:21;4.63;;;2.10;;
62633;SDS011;48704;50.534;6.442;2023-04-03T01:37:46;6.28;;;2.20;;
62633;SDS011;48704;50.534;6.442;2023-04-03T01:40:11;6.75;;;2.30;;
62633;SDS011;48704;50.534;6.442;2023-04-03T01:42:37;5.43;;;2.13;;
62633;SDS011;48704;50.534;6.442;2023-04-03T01:45:02;3.70;;;2.15;;
62633;SDS011;48704;50.534;6.442;2023-04-03T01:47:28;3.50;;;2.30;;
62633;SDS011;48704;50.534;6.442;2023-04-03T01:49:53;4.20;;;2.00;;
62633;SDS011;48704;50.534;6.442;2023-04-03T01:52:21;5.28;;;2.38;;
62633;SDS011;48704;50.534;6.442;2023-04-03T01:54:47;6.45;;;2.35;;
62633;SDS011;48704;50.534;6.442;2023-04-03T01:57:12;4.28;;;2.25;;
62633;SDS011;48704;50.534;6.442;2023-04-03T01:59:39;4.03;;;2.33;;
62633;SDS011;48704;50.534;6.442;2023-04-03T02:02:05;6.50;;;2.20;;
62633;SDS011;48704;50.534;6.442;2023-04-03T02:04:31;4.57;;;2.13;;
62633;SDS011;48704;50.534;6.442;2023-04-03T02:06:56;4.32;;;2.03;;
62633;SDS011;48704;50.534;6.442;2023-04-03T02:09:21;4.15;;;1.80;;
62633;SDS011;48704;50.534;6.442;2023-04-03T02:11:47;6.05;;;2.05;;
62633;SDS011;48704;50.534;6.442;2023-04-03T02:14:12;3.47;;;1.90;;
62633;SDS011;48704;50.534;6.442;2023-04-03T02:16:37;4.18;;;2.17;;
62633;SDS011;48704;50.534;6.442;2023-04-03T02:19:03;4.80;;;1.90;;
62633;SDS011;48704;50.534;6.442;2023-04-03T02:21:28;4.30;;;2.20;;
62633;SDS011;48704;50.534;6.442;2023-04-03T02:23:53;4.35;;;2.13;;
62633;SDS011;48704;50.534;6.442;2023-04-03T02:26:19;5.50;;;2.38;;
62633;SDS011;48704;50.534;6.442;2023-04-03T02:28:44;4.53;;;2.00;;
62633;SDS011;48704;50.534;6.442;2023-04-03T02:31:10;5.35;;;2.42;;
62633;SDS011;48704;50.534;6.442;2023-04-03T02:33:36;7.90;;;2.00;;
62633;SDS011;48704;50.534;6.442;2023-04-03T02:36:02;3.47;;;2.20;;
62633;SDS011;48704;50.534;6.442;2023-04-03T02:38:32;3.20;;;1.90;;
62633;SDS011;48704;50.534;6.442;2023-04-03T02:41:01;7.78;;;2.63;;
62633;SDS011;48704;50.534;6.442;2023-04-03T02:43:28;4.75;;;2.22;;
62633;SDS011;48704;50.534;6.442;2023-04-03T02:45:53;4.25;;;2.08;;
62633;SDS011;48704;50.534;6.442;2023-04-03T02:48:18;5.00;;;2.50;;
62633;SDS011;48704;50.534;6.442;2023-04-03T02:50:44;2.92;;;1.70;;
62633;SDS011;48704;50.534;6.442;2023-04-03T02:53:09;5.32;;;2.40;;
62633;SDS011;48704;50.534;6.442;2023-04-03T02:55:37;8.52;;;2.67;;
62633;SDS011;48704;50.534;6.442;2023-04-03T02:58:02;5.25;;;2.50;;
62633;SDS011;48704;50.534;6.442;2023-04-03T03:00:28;7.47;;;2.90;;
62633;SDS011;48704;50.534;6.442;2023-04-03T03:02:54;5.43;;;2.33;;
62633;SDS011;48704;50.534;6.442;2023-04-03T03:05:20;4.50;;;2.40;;
62633;SDS011;48704;50.534;6.442;2023-04-03T03:07:45;4.43;;;2.50;;
62633;SDS011;48704;50.534;6.442;2023-04-03T03:10:10;5.90;;;2.35;;
62633;SDS011;48704;50.534;6.442;2023-04-03T03:12:36;6.22;;;2.58;;
62633;SDS011;48704;50.534;6.442;2023-04-03T03:15:01;5.40;;;2.50;;
62633;SDS011;48704;50.534;6.442;2023-04-03T03:17:26;6.72;;;2.63;;
62633;SDS011;48704;50.534;6.442;2023-04-03T03:19:52;4.45;;;2.30;;
62633;SDS011;48704;50.534;6.442;2023-04-03T03:22:17;5.85;;;2.35;;
62633;SDS011;48704;50.534;6.442;2023-04-03T03:24:42;6.03;;;2.70;;
62633;SDS011;48704;50.534;6.442;2023-04-03T03:27:07;5.05;;;2.75;;
62633;SDS011;48704;50.534;6.442;2023-04-03T03:29:33;6.82;;;2.15;;
62633;SDS011;48704;50.534;6.442;2023-04-03T03:31:58;4.35;;;2.58;;
62633;SDS011;48704;50.534;6.442;2023-04-03T03:34:23;5.70;;;3.00;;
62633;SDS011;48704;50.534;6.442;2023-04-03T03:36:49;4.50;;;2.65;;
62633;SDS011;48704;50.534;6.442;2023-04-03T03:39:14;4.65;;;2.58;;
62633;SDS011;48704;50.534;6.442;2023-04-03T03:41:40;7.40;;;2.67;;
62633;SDS011;48704;50.534;6.442;2023-04-03T03:44:05;3.88;;;2.33;;
62633;SDS011;48704;50.534;6.442;2023-04-03T03:46:31;5.30;;;2.47;;
62633;SDS011;48704;50.534;6.442;2023-04-03T03:48:56;6.72;;;2.70;;
62633;SDS011;48704;50.534;6.442;2023-04-03T03:51:21;7.30;;;2.70;;
62633;SDS011;48704;50.534;6.442;2023-04-03T03:53:47;6.78;;;2.63;;
62633;SDS011;48704;50.534;6.442;2023-04-03T03:56:12;5.80;;;2.58;;
62633;SDS011;48704;50.534;6.442;2023-04-03T03:58:37;4.57;;;2.38;;
62633;SDS011;48704;50.534;6.442;2023-04-03T04:01:03;5.85;;;2.60;;
62633;SDS011;48704;50.534;6.442;2023-04-03T04:03:30;5.35;;;2.45;;
62633;SDS011;48704;50.534;6.442;2023-04-03T04:05:56;4.32;;;2.58;;
62633;SDS011;48704;50.534;6.442;2023-04-03T04:08:22;5.35;;;2.38;;
62633;SDS011;48704;50.534;6.442;2023-04-03T04:10:47;6.65;;;2.47;;
62633;SDS011;48704;50.534;6.442;2023-04-03T04:13:13;6.85;;;2.92;;
62633;SDS011;48704;50.534;6.442;2023-04-03T04:15:38;5.32;;;2.40;;
62633;SDS011;48704;50.534;6.442;2023-04-03T04:18:03;4.25;;;2.40;;
62633;SDS011;48704;50.534;6.442;2023-04-03T04:20:28;5.53;;;2.60;;
62633;SDS011;48704;50.534;6.442;2023-04-03T04:22:54;6.05;;;2.75;;
62633;SDS011;48704;50.534;6.442;2023-04-03T04:25:19;7.63;;;3.85;;
62633;SDS011;48704;50.534;6.442;2023-04-03T04:27:45;3.08;;;2.25;;
62633;SDS011;48704;50.534;6.442;2023-04-03T04:30:10;5.22;;;2.80;;
62633;SDS011;48704;50.534;6.442;2023-04-03T04:32:36;5.55;;;3.20;;
62633;SDS011;48704;50.534;6.442;2023-04-03T04:35:02;5.18;;;3.00;;
62633;SDS011;48704;50.534;6.442;2023-04-03T04:37:28;3.97;;;2.75;;
62633;SDS011;48704;50.534;6.442;2023-04-03T04:39:54;6.63;;;3.22;;
62633;SDS011;48704;50.534;6.442;2023-04-03T04:42:20;8.88;;;3.50;;
62633;SDS011;48704;50.534;6.442;2023-04-03T04:44:45;6.95;;;3.05;;
62633;SDS011;48704;50.534;6.442;2023-04-03T04:47:10;6.50;;;2.70;;
62633;SDS011;48704;50.534;6.442;2023-04-03T04:49:35;5.55;;;2.80;;
62633;SDS011;48704;50.534;6.442;2023-04-03T04:52:01;4.28;;;2.58;;
62633;SDS011;48704;50.534;6.442;2023-04-03T04:54:26;5.63;;;2.55;;
62633;SDS011;48704;50.534;6.442;2023-04-03T04:56:51;6.25;;;3.45;;
62633;SDS011;48704;50.534;6.442;2023-04-03T04:59:17;7.45;;;3.35;;
62633;SDS011;48704;50.534;6.442;2023-04-03T05:01:42;6.03;;;3.50;;
62633;SDS011;48704;50.534;6.442;2023-04-03T05:04:08;8.20;;;3.10;;
62633;SDS011;48704;50.534;6.442;2023-04-03T05:06:34;8.23;;;3.22;;
62633;SDS011;48704;50.534;6.442;2023-04-03T05:09:00;7.55;;;2.38;;
62633;SDS011;48704;50.534;6.442;2023-04-03T05:11:25;4.68;;;2.53;;
62633;SDS011;48704;50.534;6.442;2023-04-03T05:13:51;6.03;;;3.20;;
62633;SDS011;48704;50.534;6.442;2023-04-03T05:16:16;6.25;;;2.88;;
62633;SDS011;48704;50.534;6.442;2023-04-03T05:18:41;4.80;;;2.65;;
62633;SDS011;48704;50.534;6.442;2023-04-03T05:21:07;6.53;;;2.83;;
62633;SDS011;48704;50.534;6.442;2023-04-03T05:23:32;5.20;;;2.95;;
62633;SDS011;48704;50.534;6.442;2023-04-03T05:25:57;8.43;;;3.30;;
62633;SDS011;48704;50.534;6.442;2023-04-03T05:28:23;7.68;;;3.25;;
62633;SDS011;48704;50.534;6.442;2023-04-03T05:30:52;4.13;;;2.67;;
62633;SDS011;48704;50.534;6.442;2023-04-03T05:33:19;5.55;;;2.80;;
62633;SDS011;48704;50.534;6.442;2023-04-03T05:35:44;9.13;;;2.95;;
62633;SDS011;48704;50.534;6.442;2023-04-03T05:38:10;5.75;;;3.03;;
62633;SDS011;48704;50.534;6.442;2023-04-03T05:40:35;11.32;;;5.15;;
62633;SDS011;48704;50.534;6.442;2023-04-03T05:43:01;9.00;;;4.22;;
62633;SDS011;48704;50.534;6.442;2023-04-03T05:45:26;7.50;;;4.13;;
62633;SDS011;48704;50.534;6.442;2023-04-03T05:47:51;8.15;;;3.15;;
62633;SDS011;48704;50.534;6.442;2023-04-03T05:50:17;5.20;;;3.47;;
62633;SDS011;48704;50.534;6.442;2023-04-03T05:52:43;5.90;;;3.33;;
62633;SDS011;48704;50.534;6.442;2023-04-03T05:55:10;5.32;;;2.80;;
62633;SDS011;48704;50.534;6.442;2023-04-03T05:57:35;4.35;;;2.85;;
62633;SDS011;48704;50.534;6.442;2023-04-03T06:00:01;8.73;;;2.85;;
62633;SDS011;48704;50.534;6.442;2023-04-03T06:02:30;5.00;;;2.90;;
62633;SDS011;48704;50.534;6.442;2023-04-03T06:04:56;7.72;;;3.28;;
62633;SDS011;48704;50.534;6.442;2023-04-03T06:07:22;6.20;;;3.05;;
62633;SDS011;48704;50.534;6.442;2023-04-03T06:09:52;8.15;;;3.70;;
62633;SDS011;48704;50.534;6.442;2023-04-03T06:12:18;5.05;;;3.13;;
62633;SDS011;48704;50.534;6.442;2023-04-03T06:14:43;7.35;;;3.30;;
62633;SDS011;48704;50.534;6.442;2023-04-03T06:17:09;6.05;;;3.10;;
62633;SDS011;48704;50.534;6.442;2023-04-03T06:19:34;5.97;;;3.47;;
62633;SDS011;48704;50.534;6.442;2023-04-03T06:22:00;12.93;;;3.92;;
62633;SDS011;48704;50.534;6.442;2023-04-03T06:24:26;7.68;;;2.58;;
62633;SDS011;48704;50.534;6.442;2023-04-03T06:26:52;7.53;;;3.15;;
62633;SDS011;48704;50.534;6.442;2023-04-03T06:29:18;6.75;;;3.28;;
62633;SDS011;48704;50.534;6.442;2023-04-03T06:31:45;9.35;;;4.15;;
62633;SDS011;48704;50.534;6.442;2023-04-03T06:34:11;11.30;;;4.18;;
62633;SDS011;48704;50.534;6.442;2023-04-03T06:36:36;5.20;;;3.22;;
62633;SDS011;48704;50.534;6.442;2023-04-03T06:39:02;6.18;;;3.45;;
62633;SDS011;48704;50.534;6.442;2023-04-03T06:41:28;5.15;;;3.03;;
62633;SDS011;48704;50.534;6.442;2023-04-03T06:43:53;5.47;;;2.65;;
62633;SDS011;48704;50.534;6.442;2023-04-03T06:46:21;5.68;;;3.00;;
62633;SDS011;48704;50.534;6.442;2023-04-03T06:48:48;5.28;;;2.45;;
62633;SDS011;48704;50.534;6.442;2023-04-03T06:51:22;4.38;;;3.25;;
62633;SDS011;48704;50.534;6.442;2023-04-03T06:53:50;5.88;;;2.70;;
62633;SDS011;48704;50.534;6.442;2023-04-03T06:56:17;4.65;;;2.42;;
62633;SDS011;48704;50.534;6.442;2023-04-03T06:58:43;5.32;;;2.75;;
62633;SDS011;48704;50.534;6.442;2023-04-03T07:01:09;5.95;;;2.45;;
62633;SDS011;48704;50.534;6.442;2023-04-03T07:03:35;7.72;;;3.15;;
62633;SDS011;48704;50.534;6.442;2023-04-03T07:06:02;4.75;;;2.45;;
62633;SDS011;48704;50.534;6.442;2023-04-03T07:08:27;5.30;;;2.65;;
62633;SDS011;48704;50.534;6.442;2023-04-03T07:10:53;4.15;;;2.53;;
62633;SDS011;48704;50.534;6.442;2023-04-03T07:13:19;6.43;;;2.85;;
62633;SDS011;48704;50.534;6.442;2023-04-03T07:15:45;4.10;;;2.30;;
62633;SDS011;48704;50.534;6.442;2023-04-03T07:18:10;8.00;;;2.33;;
62633;SDS011;48704;50.534;6.442;2023-04-03T07:20:36;5.70;;;2.55;;
62633;SDS011;48704;50.534;6.442;2023-04-03T07:23:01;5.35;;;2.78;;
62633;SDS011;48704;50.534;6.442;2023-04-03T07:25:27;5.30;;;2.88;;
62633;SDS011;48704;50.534;6.442;2023-04-03T07:27:52;8.30;;;2.58;;
62633;SDS011;48704;50.534;6.442;2023-04-03T07:30:19;4.93;;;2.20;;
62633;SDS011;48704;50.534;6.442;2023-04-03T07:32:45;4.25;;;2.60;;
62633;SDS011;48704;50.534;6.442;2023-04-03T07:35:11;3.70;;;2.42;;
62633;SDS011;48704;50.534;6.442;2023-04-03T07:37:36;5.75;;;2.13;;
62633;SDS011;48704;50.534;6.442;2023-04-03T07:40:02;6.57;;;2.15;;
62633;SDS011;48704;50.534;6.442;2023-04-03T07:42:32;3.65;;;1.70;;
62633;SDS011;48704;50.534;6.442;2023-04-03T07:44:57;5.82;;;2.40;;
62633;SDS011;48704;50.534;6.442;2023-04-03T07:47:22;5.88;;;2.20;;
62633;SDS011;48704;50.534;6.442;2023-04-03T07:49:48;5.05;;;2.88;;
62633;SDS011;48704;50.534;6.442;2023-04-03T07:52:13;3.72;;;1.90;;
62633;SDS011;48704;50.534;6.442;2023-04-03T07:54:40;3.50;;;2.20;;
62633;SDS011;48704;50.534;6.442;2023-04-03T07:57:06;3.38;;;2.08;;
62633;SDS011;48704;50.534;6.442;2023-04-03T07:59:31;7.43;;;2.15;;
62633;SDS011;48704;50.534;6.442;2023-04-03T08:01:57;5.07;;;1.58;;
62633;SDS011;48704;50.534;6.442;2023-04-03T08:04:22;4.25;;;1.85;;
62633;SDS011;48704;50.534;6.442;2023-04-03T08:06:47;3.10;;;1.88;;
62633;SDS011;48704;50.534;6.442;2023-04-03T08:09:14;7.68;;;2.17;;
62633;SDS011;48704;50.534;6.442;2023-04-03T08:11:40;4.03;;;2.15;;
62633;SDS011;48704;50.534;6.442;2023-04-03T08:14:05;6.38;;;3.35;;
62633;SDS011;48704;50.534;6.442;2023-04-03T08:16:31;5.57;;;2.83;;
62633;SDS011;48704;50.534;6.442;2023-04-03T08:18:56;4.55;;;2.40;;
62633;SDS011;48704;50.534;6.442;2023-04-03T08:21:22;4.10;;;1.88;;
62633;SDS011;48704;50.534;6.442;2023-04-03T08:23:48;5.25;;;1.73;;
62633;SDS011;48704;50.534;6.442;2023-04-03T08:26:16;6.97;;;1.90;;
62633;SDS011;48704;50.534;6.442;2023-04-03T08:28:42;5.03;;;1.65;;
62633;SDS011;48704;50.534;6.442;2023-04-03T08:31:09;2.05;;;1.10;;
62633;SDS011;48704;50.534;6.442;2023-04-03T08:33:36;6.75;;;1.58;;
62633;SDS011;48704;50.534;6.442;2023-04-03T08:36:06;4.47;;;1.48;;
62633;SDS011;48704;50.534;6.442;2023-04-03T08:38:39;3.88;;;1.23;;
62633;SDS011;48704;50.534;6.442;2023-04-03T08:43:45;4.32;;;1.42;;
62633;SDS011;48704;50.534;6.442;2023-04-03T08:46:14;5.35;;;1.58;;
62633;SDS011;48704;50.534;6.442;2023-04-03T08:48:43;6.03;;;1.40;;
62633;SDS011;48704;50.534;6.442;2023-04-03T08:51:11;7.35;;;1.63;;
62633;SDS011;48704;50.534;6.442;2023-04-03T08:53:42;3.03;;;1.67;;
62633;SDS011;48704;50.534;6.442;2023-04-03T08:56:14;8.40;;;1.60;;
62633;SDS011;48704;50.534;6.442;2023-04-03T08:58:51;5.18;;;1.42;;
62633;SDS011;48704;50.534;6.442;2023-04-03T09:01:23;6.18;;;1.38;;
62633;SDS011;48704;50.534;6.442;2023-04-03T09:03:53;6.10;;;1.92;;
62633;SDS011;48704;50.534;6.442;2023-04-03T09:06:20;4.40;;;1.33;;
62633;SDS011;48704;50.534;6.442;2023-04-03T09:21:49;3.45;;;1.48;;
62633;SDS011;48704;50.534;6.442;2023-04-03T09:24:15;3.30;;;1.27;;
62633;SDS011;48704;50.534;6.442;2023-04-03T09:26:46;3.58;;;1.42;;
62633;SDS011;48704;50.534;6.442;2023-04-03T09:29:19;5.53;;;1.60;;
62633;SDS011;48704;50.534;6.442;2023-04-03T09:31:46;5.20;;;1.67;;
62633;SDS011;48704;50.534;6.442;2023-04-03T09:34:22;2.47;;;1.20;;
62633;SDS011;48704;50.534;6.442;2023-04-03T09:36:52;2.67;;;1.50;;
62633;SDS011;48704;50.534;6.442;2023-04-03T09:39:25;4.28;;;1.50;;
62633;SDS011;48704;50.534;6.442;2023-04-03T09:41:58;4.97;;;1.65;;
62633;SDS011;48704;50.534;6.442;2023-04-03T09:44:37;4.00;;;1.65;;
62633;SDS011;48704;50.534;6.442;2023-04-03T09:49:44;3.78;;;1.60;;
62633;SDS011;48704;50.534;6.442;2023-04-03T09:52:20;5.22;;;1.83;;
62633;SDS011;48704;50.534;6.442;2023-04-03T09:54:49;3.95;;;1.50;;
62633;SDS011;48704;50.534;6.442;2023-04-03T09:57:14;4.60;;;2.40;;
62633;SDS011;48704;50.534;6.442;2023-04-03T09:59:42;6.90;;;2.05;;
62633;SDS011;48704;50.534;6.442;2023-04-03T10:04:39;6.78;;;1.75;;
62633;SDS011;48704;50.534;6.442;2023-04-03T10:09:56;3.40;;;1.80;;
62633;SDS011;48704;50.534;6.442;2023-04-03T10:12:22;4.93;;;1.95;;
62633;SDS011;48704;50.534;6.442;2023-04-03T10:19:51;6.85;;;1.80;;
62633;SDS011;48704;50.534;6.442;2023-04-03T10:27:44;5.05;;;1.40;;
62633;SDS011;48704;50.534;6.442;2023-04-03T10:41:39;2.67;;;1.20;;
62633;SDS011;48704;50.534;6.442;2023-04-03T10:50:00;5.03;;;1.45;;
62633;SDS011;48704;50.534;6.442;2023-04-03T10:57:49;3.88;;;1.33;;
62633;SDS011;48704;50.534;6.442;2023-04-03T11:00:16;3.58;;;1.30;;
62633;SDS011;48704;50.534;6.442;2023-04-03T11:05:25;6.10;;;1.58;;
62633;SDS011;48704;50.534;6.442;2023-04-03T11:07:57;4.85;;;1.38;;
62633;SDS011;48704;50.534;6.442;2023-04-03T11:13:22;3.90;;;1.40;;
62633;SDS011;48704;50.534;6.442;2023-04-03T11:16:21;3.53;;;1.25;;
62633;SDS011;48704;50.534;6.442;2023-04-03T11:18:56;5.10;;;1.10;;
62633;SDS011;48704;50.534;6.442;2023-04-03T11:21:28;4.80;;;1.65;;
62633;SDS011;48704;50.534;6.442;2023-04-03T11:23:59;3.42;;;1.33;;
62633;SDS011;48704;50.534;6.442;2023-04-03T11:26:30;6.00;;;1.48;;
62633;SDS011;48704;50.534;6.442;2023-04-03T11:29:01;3.95;;;1.30;;
62633;SDS011;48704;50.534;6.442;2023-04-03T11:31:38;4.03;;;1.25;;
62633;SDS011;48704;50.534;6.442;2023-04-03T11:34:17;3.30;;;1.35;;
62633;SDS011;48704;50.534;6.442;2023-04-03T11:36:48;2.40;;;1.08;;
62633;SDS011;48704;50.534;6.442;2023-04-03T11:41:43;3.97;;;1.25;;
62633;SDS011;48704;50.534;6.442;2023-04-03T11:44:32;3.47;;;0.98;;
62633;SDS011;48704;50.534;6.442;2023-04-03T11:47:02;2.72;;;1.20;;
62633;SDS011;48704;50.534;6.442;2023-04-03T12:00:46;2.75;;;1.20;;
62633;SDS011;48704;50.534;6.442;2023-04-03T12:16:19;3.90;;;1.10;;
62633;SDS011;48704;50.534;6.442;2023-04-03T12:26:36;3.58;;;1.35;;
62633;SDS011;48704;50.534;6.442;2023-04-03T12:29:53;3.13;;;1.10;;
62633;SDS011;48704;50.534;6.442;2023-04-03T12:40:09;3.60;;;1.50;;
62633;SDS011;48704;50.534;6.442;2023-04-03T12:45:53;3.45;;;1.35;;
62633;SDS011;48704;50.534;6.442;2023-04-03T12:48:26;2.90;;;1.33;;
62633;SDS011;48704;50.534;6.442;2023-04-03T12:50:55;3.45;;;1.13;;
62633;SDS011;48704;50.534;6.442;2023-04-03T12:53:25;4.88;;;1.48;;
62633;SDS011;48704;50.534;6.442;2023-04-03T12:55:55;5.47;;;1.50;;
62633;SDS011;48704;50.534;6.442;2023-04-03T12:58:25;5.63;;;1.35;;
62633;SDS011;48704;50.534;6.442;2023-04-03T13:01:11;4.22;;;1.45;;
62633;SDS011;48704;50.534;6.442;2023-04-03T13:03:41;4.13;;;1.40;;
62633;SDS011;48704;50.534;6.442;2023-04-03T13:06:39;4.90;;;1.63;;
62633;SDS011;48704;50.534;6.442;2023-04-03T13:09:03;3.83;;;1.40;;
62633;SDS011;48704;50.534;6.442;2023-04-03T13:11:39;4.03;;;1.20;;
62633;SDS011;48704;50.534;6.442;2023-04-03T13:14:23;2.60;;;1.27;;
62633;SDS011;48704;50.534;6.442;2023-04-03T13:16:54;3.40;;;1.23;;
62633;SDS011;48704;50.534;6.442;2023-04-03T13:19:26;3.55;;;1.17;;
62633;SDS011;48704;50.534;6.442;2023-04-03T13:21:56;3.30;;;1.02;;
62633;SDS011;48704;50.534;6.442;2023-04-03T13:24:27;5.85;;;1.40;;
62633;SDS011;48704;50.534;6.442;2023-04-03T13:26:55;5.95;;;1.50;;
62633;SDS011;48704;50.534;6.442;2023-04-03T13:29:28;4.88;;;1.55;;
62633;SDS011;48704;50.534;6.442;2023-04-03T13:31:56;9.45;;;3.08;;
62633;SDS011;48704;50.534;6.442;2023-04-03T13:34:24;3.22;;;1.55;;
62633;SDS011;48704;50.534;6.442;2023-04-03T13:41:44;4.60;;;1.42;;
62633;SDS011;48704;50.534;6.442;2023-04-03T13:46:40;2.55;;;0.82;;
62633;SDS011;48704;50.534;6.442;2023-04-03T13:49:17;3.05;;;1.10;;
62633;SDS011;48704;50.534;6.442;2023-04-03T13:51:46;4.35;;;1.60;;
62633;SDS011;48704;50.534;6.442;2023-04-03T13:54:16;2.35;;;1.00;;
62633;SDS011;48704;50.534;6.442;2023-04-03T13:56:46;4.10;;;1.20;;
62633;SDS011;48704;50.534;6.442;2023-04-03T14:01:44;2.80;;;1.05;;
62633;SDS011;48704;50.534;6.442;2023-04-03T14:04:25;4.40;;;1.20;;
62633;SDS011;48704;50.534;6.442;2023-04-03T14:06:58;2.97;;;1.10;;
62633;SDS011;48704;50.534;6.442;2023-04-03T14:09:25;2.75;;;1.02;;
62633;SDS011;48704;50.534;6.442;2023-04-03T14:11:57;5.32;;;2.35;;
62633;SDS011;48704;50.534;6.442;2023-04-03T14:14:30;4.85;;;1.42;;
62633;SDS011;48704;50.534;6.442;2023-04-03T14:16:59;3.53;;;1.02;;
62633;SDS011;48704;50.534;6.442;2023-04-03T14:19:28;3.15;;;1.10;;
62633;SDS011;48704;50.534;6.442;2023-04-03T14:21:55;3.97;;;1.60;;
62633;SDS011;48704;50.534;6.442;2023-04-03T14:24:22;3.60;;;1.20;;
62633;SDS011;48704;50.534;6.442;2023-04-03T14:26:50;3.42;;;1.10;;
62633;SDS011;48704;50.534;6.442;2023-04-03T14:29:18;3.55;;;1.25;;
62633;SDS011;48704;50.534;6.442;2023-04-03T14:31:44;4.25;;;0.98;;
62633;SDS011;48704;50.534;6.442;2023-04-03T14:34:11;2.13;;;1.20;;
62633;SDS011;48704;50.534;6.442;2023-04-03T14:36:38;2.50;;;0.98;;
62633;SDS011;48704;50.534;6.442;2023-04-03T14:39:05;2.20;;;0.90;;
62633;SDS011;48704;50.534;6.442;2023-04-03T14:41:33;3.53;;;1.10;;
62633;SDS011;48704;50.534;6.442;2023-04-03T14:43:58;3.53;;;1.10;;
62633;SDS011;48704;50.534;6.442;2023-04-03T14:46:29;4.32;;;1.20;;
62633;SDS011;48704;50.534;6.442;2023-04-03T14:48:57;3.10;;;1.17;;
62633;SDS011;48704;50.534;6.442;2023-04-03T14:51:23;3.15;;;1.05;;
62633;SDS011;48704;50.534;6.442;2023-04-03T14:53:48;3.67;;;1.30;;
62633;SDS011;48704;50.534;6.442;2023-04-03T14:56:16;3.05;;;1.10;;
62633;SDS011;48704;50.534;6.442;2023-04-03T14:58:44;3.75;;;1.30;;
62633;SDS011;48704;50.534;6.442;2023-04-03T15:01:12;3.55;;;1.60;;
62633;SDS011;48704;50.534;6.442;2023-04-03T15:03:39;2.88;;;1.10;;
62633;SDS011;48704;50.534;6.442;2023-04-03T15:06:04;3.53;;;1.40;;
62633;SDS011;48704;50.534;6.442;2023-04-03T15:08:30;5.63;;;1.75;;
62633;SDS011;48704;50.534;6.442;2023-04-03T15:10:55;2.85;;;1.27;;
62633;SDS011;48704;50.534;6.442;2023-04-03T15:13:22;3.28;;;1.23;;
62633;SDS011;48704;50.534;6.442;2023-04-03T15:15:48;2.25;;;1.08;;
62633;SDS011;48704;50.534;6.442;2023-04-03T15:18:18;5.10;;;1.73;;
62633;SDS011;48704;50.534;6.442;2023-04-03T15:20:46;2.60;;;1.02;;
62633;SDS011;48704;50.534;6.442;2023-04-03T15:23:13;2.55;;;1.13;;
62633;SDS011;48704;50.534;6.442;2023-04-03T15:25:40;3.50;;;1.40;;
62633;SDS011;48704;50.534;6.442;2023-04-03T15:28:08;5.05;;;1.55;;
62633;SDS011;48704;50.534;6.442;2023-04-03T15:30:40;5.45;;;1.35;;
62633;SDS011;48704;50.534;6.442;2023-04-03T15:33:05;5.93;;;1.98;;
62633;SDS011;48704;50.534;6.442;2023-04-03T15:35:31;5.22;;;1.90;;
62633;SDS011;48704;50.534;6.442;2023-04-03T15:37:56;3.38;;;1.27;;
62633;SDS011;48704;50.534;6.442;2023-04-03T15:40:21;5.22;;;1.70;;
62633;SDS011;48704;50.534;6.442;2023-04-03T15:42:47;3.80;;;1.40;;
62633;SDS011;48704;50.534;6.442;2023-04-03T15:45:12;3.03;;;1.10;;
62633;SDS011;48704;50.534;6.442;2023-04-03T15:47:38;2.72;;;1.00;;
62633;SDS011;48704;50.534;6.442;2023-04-03T15:50:04;3.33;;;1.38;;
62633;SDS011;48704;50.534;6.442;2023-04-03T15:52:31;5.43;;;2.13;;
62633;SDS011;48704;50.534;6.442;2023-04-03T15:54:57;2.60;;;1.50;;
62633;SDS011;48704;50.534;6.442;2023-04-03T15:57:22;3.40;;;1.38;;
62633;SDS011;48704;50.534;6.442;2023-04-03T15:59:50;2.65;;;1.40;;
62633;SDS011;48704;50.534;6.442;2023-04-03T16:02:16;2.58;;;1.30;;
62633;SDS011;48704;50.534;6.442;2023-04-03T16:04:41;3.47;;;1.00;;
62633;SDS011;48704;50.534;6.442;2023-04-03T16:07:07;2.28;;;1.10;;
62633;SDS011;48704;50.534;6.442;2023-04-03T16:09:32;5.35;;;1.40;;
62633;SDS011;48704;50.534;6.442;2023-04-03T16:11:59;3.40;;;1.00;;
62633;SDS011;48704;50.534;6.442;2023-04-03T16:14:25;3.65;;;1.20;;
62633;SDS011;48704;50.534;6.442;2023-04-03T16:16:51;3.25;;;1.38;;
62633;SDS011;48704;50.534;6.442;2023-04-03T16:19:17;2.75;;;1.10;;
62633;SDS011;48704;50.534;6.442;2023-04-03T16:21:42;4.65;;;1.30;;
62633;SDS011;48704;50.534;6.442;2023-04-03T16:24:08;2.67;;;1.20;;
62633;SDS011;48704;50.534;6.442;2023-04-03T16:26:33;3.33;;;1.40;;
62633;SDS011;48704;50.534;6.442;2023-04-03T16:28:59;5.45;;;1.48;;
62633;SDS011;48704;50.534;6.442;2023-04-03T16:31:24;5.10;;;1.85;;
62633;SDS011;48704;50.534;6.442;2023-04-03T16:33:50;4.28;;;1.48;;
62633;SDS011;48704;50.534;6.442;2023-04-03T16:36:16;4.38;;;1.38;;
62633;SDS011;48704;50.534;6.442;2023-04-03T16:38:42;4.05;;;1.50;;
62633;SDS011;48704;50.534;6.442;2023-04-03T16:41:07;3.60;;;1.30;;
62633;SDS011;48704;50.534;6.442;2023-04-03T16:43:32;1.95;;;1.08;;
62633;SDS011;48704;50.534;6.442;2023-04-03T16:46:00;2.25;;;1.10;;
62633;SDS011;48704;50.534;6.442;2023-04-03T16:48:27;3.13;;;1.08;;
62633;SDS011;48704;50.534;6.442;2023-04-03T16:50:53;2.60;;;1.20;;
62633;SDS011;48704;50.534;6.442;2023-04-03T16:53:19;2.63;;;1.13;;
62633;SDS011;48704;50.534;6.442;2023-04-03T16:55:45;4.00;;;1.13;;